Time;durP1;ratioP1;P1;durP2;ratioP2;P2;SDS_P1;SDS_P2;PMS_P1;PMS_P2;Temp;Humidity;BMP_temperature;BMP_pressure;BME280_temperature;BME280_humidity;BME280_pressure;Samples;Min_cycle;Max_cycle;Signal;HPM_P1;HPM_P2
2021/01/03 00:03:17;;;;;;;138.45;76.05;;;3.30;91.10;;;;;;5869509;23;88814;-82
2021/01/03 00:17:33;;;;;;;169.43;85.20;;;3.20;91.40;;;;;;5014221;23;88025;-80
2021/01/03 00:22:37;;;;;;;141.90;77.03;;;3.20;91.50;;;;;;4964336;28;88239;-79
2021/01/03 00:25:05;;;;;;;154.23;79.30;;;3.20;91.50;;;;;;4934606;28;86615;-78
2021/01/03 00:27:31;;;;;;;154.00;80.87;;;3.20;91.60;;;;;;5278710;23;88760;-82
2021/01/03 00:29:58;;;;;;;149.33;79.43;;;3.10;91.80;;;;;;4940537;23;89992;-80
2021/01/03 00:43:32;;;;;;;156.73;78.53;;;3.40;91.30;;;;;;5131543;23;88000;-79
2021/01/03 00:51:22;;;;;;;157.55;78.53;;;3.20;91.40;;;;;;5055919;23;89032;-80
2021/01/03 01:23:30;;;;;;;148.60;74.90;;;2.90;92.80;;;;;;4938405;23;88250;-81
2021/01/03 01:28:38;;;;;;;135.65;72.25;;;2.80;92.90;;;;;;5893021;23;88860;-80
2021/01/03 01:31:14;;;;;;;143.23;73.60;;;2.90;92.80;;;;;;5117780;23;85788;31
2021/01/03 01:39:18;;;;;;;152.30;78.50;;;3.10;92.40;;;;;;5836870;23;89549;-79
2021/01/03 01:56:38;;;;;;;139.05;73.05;;;3.00;92.80;;;;;;5422705;23;91891;-77
2021/01/03 01:59:07;;;;;;;143.83;72.33;;;3.00;92.70;;;;;;5299125;23;90216;-80
2021/01/03 02:12:49;;;;;;;123.55;66.45;;;3.30;92.10;;;;;;5384538;23;88440;-79
2021/01/03 02:34:31;;;;;;;127.33;67.97;;;3.20;92.40;;;;;;5154640;23;89276;-85
2021/01/03 02:37:06;;;;;;;132.90;68.78;;;3.30;92.20;;;;;;4929216;28;86423;-81
2021/01/03 02:39:43;;;;;;;134.67;69.17;;;3.40;91.90;;;;;;5698672;23;89767;-80
2021/01/03 02:48:19;;;;;;;120.07;64.67;;;3.50;91.70;;;;;;5062341;23;87716;-81
2021/01/03 02:53:34;;;;;;;115.50;63.70;;;3.60;91.50;;;;;;5741767;23;88327;-83
2021/01/03 02:56:00;;;;;;;120.83;62.10;;;3.70;91.30;;;;;;5556880;23;88406;-80
2021/01/03 03:40:20;;;;;;;113.90;61.10;;;3.30;92.70;;;;;;5776565;23;89135;-79
2021/01/03 03:42:46;;;;;;;113.70;61.37;;;3.20;92.80;;;;;;5332842;23;87527;-78
2021/01/03 03:58:43;;;;;;;112.40;59.15;;;3.40;92.50;;;;;;6000277;23;89564;-75
2021/01/03 04:13:10;;;;;;;105.03;57.73;;;3.10;93.20;;;;;;5899758;23;88907;-80
2021/01/03 04:23:42;;;;;;;101.65;60.42;;;2.90;94.00;;;;;;5490019;23;88880;-80
2021/01/03 04:26:17;;;;;;;101.17;57.50;;;2.90;93.90;;;;;;4912234;28;86734;-81
2021/01/03 04:31:25;;;;;;;91.68;53.97;;;2.90;93.80;;;;;;5225789;23;87832;-78
2021/01/03 04:33:51;;;;;;;91.47;54.30;;;2.90;94.30;;;;;;4928775;28;87056;-78
2021/01/03 05:05:01;;;;;;;90.20;57.03;;;3.00;94.10;;;;;;5701564;23;88691;-80
2021/01/03 05:07:32;;;;;;;94.47;56.27;;;2.90;94.40;;;;;;4912290;28;86129;-80
2021/01/03 05:10:21;;;;;;;93.10;55.50;;;3.00;94.50;;;;;;4896326;28;86040;-79
2021/01/03 05:12:59;;;;;;;94.43;57.93;;;2.90;94.50;;;;;;4896416;28;90030;-81
2021/01/03 05:15:29;;;;;;;100.80;60.27;;;2.90;94.50;;;;;;5139661;23;88706;-81
2021/01/03 05:17:56;;;;;;;87.03;52.93;;;3.00;94.50;;;;;;5116877;23;89453;-79
2021/01/03 05:20:22;;;;;;;94.07;53.90;;;3.00;94.50;;;;;;5271710;23;88122;-80
2021/01/03 05:22:48;;;;;;;93.77;57.47;;;3.00;94.40;;;;;;5043717;23;89917;-79
2021/01/03 05:28:23;;;;;;;99.07;57.83;;;3.20;94.00;;;;;;6045258;23;88661;31
2021/01/03 05:30:50;;;;;;;100.47;59.00;;;3.20;93.90;;;;;;5318316;23;88587;-79
2021/01/03 05:33:25;;;;;;;94.77;57.40;;;3.30;93.70;;;;;;4930870;28;89813;-80
2021/01/03 05:38:41;;;;;;;93.47;58.33;;;3.50;93.10;;;;;;5080864;23;87729;-81
2021/01/03 05:58:40;;;;;;;90.33;56.13;;;3.60;92.70;;;;;;5993563;23;89134;-81
2021/01/03 06:04:06;;;;;;;89.33;57.07;;;3.70;92.50;;;;;;5046706;23;87914;-80
2021/01/03 06:09:02;;;;;;;89.80;56.90;;;3.70;92.70;;;;;;4908479;28;89920;-79
2021/01/03 06:16:52;;;;;;;93.10;55.50;;;3.60;93.00;;;;;;5108522;23;87942;-77
2021/01/03 06:55:07;;;;;;;99.78;60.33;;;3.40;93.90;;;;;;5055724;23;87600;-80
2021/01/03 07:00:33;;;;;;;96.30;58.63;;;3.50;93.70;;;;;;4974110;23;89994;-79
2021/01/03 07:03:32;;;;;;;99.63;57.50;;;3.50;93.70;;;;;;5234475;23;89458;-79
2021/01/03 07:11:40;;;;;;;91.68;57.22;;;3.70;93.30;;;;;;4935535;23;88149;-79
2021/01/03 07:14:19;;;;;;;99.33;58.70;;;3.60;93.40;;;;;;5093701;23;89440;-80
2021/01/03 07:16:56;;;;;;;102.07;60.90;;;3.70;93.20;;;;;;5127897;23;88342;31
2021/01/03 07:34:17;;;;;;;92.03;54.33;;;3.90;92.70;;;;;;5345360;23;89813;-80
2021/01/03 07:36:57;;;;;;;92.10;55.67;;;3.90;92.70;;;;;;4934835;28;88508;-80
2021/01/03 07:39:29;;;;;;;104.20;61.20;;;3.90;92.60;;;;;;4918477;28;86033;-79
2021/01/03 07:42:15;;;;;;;93.30;56.63;;;4.00;92.50;;;;;;4917592;28;86232;-80
2021/01/03 07:44:41;;;;;;;100.00;63.13;;;3.90;92.40;;;;;;4918262;28;89920;-80
2021/01/03 07:52:27;;;;;;;100.72;60.63;;;4.00;92.20;;;;;;5296462;23;88035;-81
2021/01/03 07:54:55;;;;;;;96.90;59.60;;;4.00;92.20;;;;;;4947435;28;91034;-79
2021/01/03 08:05:07;;;;;;;100.37;62.67;;;4.00;92.50;;;;;;4918542;28;88137;-81
2021/01/03 08:13:14;;;;;;;120.13;74.40;;;4.20;92.30;;;;;;5494589;23;88290;-79
2021/01/03 08:32:26;;;;;;;95.40;60.67;;;4.60;91.30;;;;;;4925807;28;86292;-80
2021/01/03 08:37:46;;;;;;;98.63;60.57;;;4.60;91.20;;;;;;5082434;23;88599;-80
2021/01/03 08:40:25;;;;;;;98.43;60.63;;;4.70;91.20;;;;;;5636166;23;88433;-81
2021/01/03 08:42:58;;;;;;;87.87;56.93;;;4.70;91.10;;;;;;5055239;23;91784;-81
2021/01/03 08:45:29;;;;;;;90.23;57.00;;;4.70;91.10;;;;;;4891079;28;85413;-81
2021/01/03 08:50:44;;;;;;;93.43;58.20;;;4.90;91.00;;;;;;5887417;23;88920;-79
2021/01/03 08:53:20;;;;;;;86.43;56.07;;;4.90;91.00;;;;;;5288450;23;89599;31
2021/01/03 08:55:47;;;;;;;91.77;57.70;;;4.90;90.90;;;;;;4872231;28;87352;-79
2021/01/03 08:58:20;;;;;;;95.87;60.33;;;5.00;90.70;;;;;;4859299;29;91307;-81
2021/01/03 09:00:58;;;;;;;85.67;55.67;;;4.90;90.70;;;;;;4871632;28;87430;-79
2021/01/03 09:03:25;;;;;;;90.80;57.40;;;5.00;90.90;;;;;;4878461;28;87104;-80
2021/01/03 09:05:52;;;;;;;89.33;57.87;;;4.90;90.80;;;;;;4867190;29;87450;-81
2021/01/03 09:08:27;;;;;;;88.17;57.13;;;5.00;91.00;;;;;;4870760;29;88372;-81
2021/01/03 09:11:21;;;;;;;92.33;59.40;;;5.00;91.00;;;;;;4879965;28;91028;-79
2021/01/03 09:13:50;;;;;;;90.87;59.47;;;5.00;90.90;;;;;;4873146;28;87362;-81
2021/01/03 09:16:48;;;;;;;91.40;58.13;;;5.10;90.80;;;;;;4878134;28;87574;-81
2021/01/03 09:19:22;;;;;;;88.80;56.80;;;5.10;90.80;;;;;;4833938;29;90937;-81
2021/01/03 09:21:51;;;;;;;96.13;60.90;;;5.20;90.80;;;;;;4876343;29;90255;-82
2021/01/03 09:24:27;;;;;;;96.07;59.43;;;5.30;90.60;;;;;;4886045;28;87093;-80
2021/01/03 09:26:56;;;;;;;85.23;54.37;;;5.30;90.70;;;;;;4866252;29;88121;-79
2021/01/03 09:29:30;;;;;;;79.53;48.90;;;5.20;90.70;;;;;;4883970;28;90496;-82
2021/01/03 09:32:23;;;;;;;74.63;49.90;;;5.20;90.40;;;;;;4880166;29;87413;-80
2021/01/03 09:35:11;;;;;;;77.77;49.37;;;5.10;90.40;;;;;;4878031;28;87391;-81
2021/01/03 09:37:40;;;;;;;81.57;51.10;;;5.00;90.60;;;;;;4863735;28;87114;-79
2021/01/03 09:40:16;;;;;;;74.37;48.10;;;4.90;90.90;;;;;;4875235;29;88186;-80
2021/01/03 09:43:06;;;;;;;80.53;48.80;;;4.80;90.90;;;;;;4883499;28;87697;-81
2021/01/03 09:46:04;;;;;;;78.13;50.30;;;4.60;91.70;;;;;;4880588;28;87779;-79
2021/01/03 09:48:36;;;;;;;75.47;48.23;;;4.60;91.90;;;;;;4883964;28;87577;-80
2021/01/03 09:51:22;;;;;;;79.43;49.93;;;4.40;92.10;;;;;;4885720;28;86944;-80
2021/01/03 09:53:55;;;;;;;77.37;49.80;;;4.40;92.80;;;;;;4890936;28;89929;-81
2021/01/03 09:56:41;;;;;;;72.47;44.93;;;4.40;92.60;;;;;;4892151;28;86174;-82
2021/01/03 09:59:16;;;;;;;72.93;46.13;;;4.40;92.50;;;;;;4889671;28;86742;-82
2021/01/03 10:01:44;;;;;;;79.67;47.40;;;4.20;93.20;;;;;;4876439;28;89786;-81
2021/01/03 10:04:16;;;;;;;77.97;45.70;;;4.20;93.00;;;;;;4888663;29;86934;-82
2021/01/03 10:06:48;;;;;;;67.30;45.20;;;4.10;93.10;;;;;;4871954;28;86793;-81
2021/01/03 10:09:23;;;;;;;73.03;47.53;;;4.20;93.20;;;;;;4869929;29;88235;-81
2021/01/03 10:11:51;;;;;;;69.53;43.23;;;4.30;93.00;;;;;;4877825;28;88299;-80
2021/01/03 10:17:22;;;;;;;73.15;43.55;;;4.10;93.20;;;;;;5764945;23;91376;-80
2021/01/03 10:19:48;;;;;;;74.07;45.93;;;4.20;93.20;;;;;;4909317;28;86353;-81
2021/01/03 10:22:40;;;;;;;65.63;42.50;;;4.30;93.20;;;;;;5214087;23;90299;-81
2021/01/03 10:25:12;;;;;;;68.65;42.40;;;4.40;92.90;;;;;;4903794;28;86898;-81
2021/01/03 10:30:12;;;;;;;68.87;42.30;;;4.50;92.50;;;;;;4929728;28;87297;-79
2021/01/03 10:32:38;;;;;;;68.07;42.57;;;4.50;92.80;;;;;;4912200;28;90010;-81
2021/01/03 10:35:07;;;;;;;67.43;44.63;;;4.60;92.60;;;;;;4895280;28;89664;-79
2021/01/03 10:37:33;;;;;;;72.90;42.60;;;4.70;92.40;;;;;;4929749;28;87925;-80
2021/01/03 10:39:59;;;;;;;69.33;44.13;;;4.60;92.60;;;;;;4929977;28;86690;-80
2021/01/03 10:42:25;;;;;;;63.37;41.40;;;4.60;92.80;;;;;;4912551;28;89505;-79
2021/01/03 10:44:51;;;;;;;66.13;41.50;;;4.60;92.70;;;;;;4935511;28;87151;-79
2021/01/03 10:47:17;;;;;;;62.30;40.80;;;4.50;92.90;;;;;;4924300;28;86786;-78
2021/01/03 10:49:43;;;;;;;69.20;43.53;;;4.40;92.90;;;;;;4904425;28;87072;-78
2021/01/03 10:52:09;;;;;;;63.33;41.40;;;4.40;93.10;;;;;;4904815;28;87176;-79
2021/01/03 10:54:35;;;;;;;66.03;41.47;;;4.50;93.00;;;;;;4904771;28;86808;-78
2021/01/03 10:57:02;;;;;;;61.80;40.17;;;4.50;92.60;;;;;;4900444;28;87304;-81
2021/01/03 10:59:28;;;;;;;68.00;43.03;;;4.40;92.70;;;;;;4898118;28;87042;-82
2021/01/03 11:01:54;;;;;;;63.20;42.73;;;4.40;93.10;;;;;;4903504;28;89433;-81
2021/01/03 11:04:23;;;;;;;58.33;39.43;;;4.50;92.90;;;;;;4923675;28;89291;-81
2021/01/03 11:06:52;;;;;;;67.17;43.20;;;4.40;92.70;;;;;;4902351;28;87326;-79
2021/01/03 11:09:27;;;;;;;58.43;40.07;;;4.40;92.60;;;;;;4905360;28;87205;-80
2021/01/03 11:12:07;;;;;;;64.43;40.60;;;4.50;92.60;;;;;;4888657;28;88171;-80
2021/01/03 11:25:36;;;;;;;59.20;39.30;;;4.70;92.20;;;;;;4910475;28;87348;-82
2021/01/03 11:28:03;;;;;;;64.07;40.07;;;4.80;91.90;;;;;;4909529;28;88029;-82
2021/01/03 11:30:29;;;;;;;66.27;41.83;;;4.80;91.80;;;;;;4908905;28;86987;-82
2021/01/03 11:32:55;;;;;;;64.80;42.47;;;4.80;91.50;;;;;;4910305;28;87482;-81
2021/01/03 11:35:21;;;;;;;64.60;42.43;;;4.70;91.80;;;;;;4908035;28;88123;-83
2021/01/03 11:37:51;;;;;;;71.90;46.33;;;4.70;91.90;;;;;;4919490;28;86936;-80
2021/01/03 11:40:18;;;;;;;64.37;43.20;;;4.70;92.00;;;;;;4905447;28;86972;-82
2021/01/03 11:42:44;;;;;;;68.60;44.43;;;4.60;92.10;;;;;;4894465;28;89752;-81
2021/01/03 11:45:13;;;;;;;71.57;46.20;;;4.50;92.40;;;;;;4909945;28;87955;-81
2021/01/03 11:47:39;;;;;;;65.03;45.70;;;4.40;92.80;;;;;;4892547;28;87168;-81
2021/01/03 11:50:09;;;;;;;68.13;45.90;;;4.40;93.00;;;;;;4911200;28;87087;-82
2021/01/03 11:52:35;;;;;;;73.87;48.70;;;4.30;92.60;;;;;;4913327;28;89405;-82
2021/01/03 11:55:01;;;;;;;71.30;46.30;;;4.30;92.80;;;;;;4897654;28;88784;-81
2021/01/03 11:57:27;;;;;;;70.13;45.57;;;4.30;92.90;;;;;;4919176;28;86519;-81
2021/01/03 11:59:53;;;;;;;74.60;47.03;;;4.40;93.00;;;;;;4893755;28;87134;-82
2021/01/03 12:02:20;;;;;;;74.23;48.87;;;4.30;92.40;;;;;;4912154;28;89501;-81
2021/01/03 12:04:46;;;;;;;74.90;48.27;;;4.30;92.70;;;;;;4908485;28;89545;-82
2021/01/03 12:07:15;;;;;;;77.80;48.40;;;4.30;92.80;;;;;;4902748;28;87381;-82
2021/01/03 12:09:42;;;;;;;79.00;49.67;;;4.30;92.80;;;;;;4903971;28;86851;-82
2021/01/03 12:12:11;;;;;;;70.80;48.13;;;4.30;92.90;;;;;;4902594;28;89833;-81
2021/01/03 12:14:38;;;;;;;79.67;50.73;;;4.30;92.80;;;;;;4902746;28;87553;-82
2021/01/03 12:17:07;;;;;;;76.80;49.93;;;4.20;93.10;;;;;;4922805;28;87897;-81
2021/01/03 12:19:33;;;;;;;74.73;49.93;;;4.20;93.20;;;;;;4909207;28;87112;-83
2021/01/03 12:22:01;;;;;;;73.27;50.77;;;4.30;93.20;;;;;;4908983;28;89812;-80
2021/01/03 12:24:28;;;;;;;74.13;50.03;;;4.30;93.00;;;;;;4890610;28;89564;-81
2021/01/03 12:26:55;;;;;;;76.43;50.17;;;4.40;92.60;;;;;;4901494;28;87069;-81
2021/01/03 12:29:22;;;;;;;76.37;49.40;;;4.40;92.50;;;;;;4889191;28;86503;-81
2021/01/03 12:31:54;;;;;;;78.87;50.33;;;4.40;92.50;;;;;;4882828;28;90021;-81
2021/01/03 12:34:22;;;;;;;;;;;4.40;92.60;;;;;;4879391;28;88282;-80
2021/01/03 12:36:48;;;;;;;73.07;47.40;;;4.50;92.60;;;;;;4882372;28;87833;-82
2021/01/03 12:39:15;;;;;;;70.33;47.20;;;4.50;92.40;;;;;;4889755;28;87582;-80
2021/01/03 12:41:42;;;;;;;76.13;48.70;;;4.50;92.40;;;;;;4885100;28;91346;-82
2021/01/03 12:44:08;;;;;;;75.30;47.17;;;4.60;92.40;;;;;;4890188;28;88588;-80
2021/01/03 12:46:38;;;;;;;74.57;46.77;;;4.60;92.50;;;;;;4885459;28;87188;-80
2021/01/03 12:49:06;;;;;;;71.30;46.37;;;4.60;92.30;;;;;;4851034;28;88268;-80
2021/01/03 12:51:32;;;;;;;72.33;46.80;;;4.60;92.10;;;;;;4883353;28;88333;-80
2021/01/03 12:53:59;;;;;;;71.97;46.53;;;4.40;92.50;;;;;;4885897;28;87975;-79
2021/01/03 12:56:26;;;;;;;71.10;46.77;;;4.40;92.70;;;;;;4870319;28;86988;-80
2021/01/03 12:59:00;;;;;;;72.17;46.50;;;4.30;92.90;;;;;;4894619;28;88197;-81
2021/01/03 13:01:29;;;;;;;76.43;49.53;;;4.30;93.10;;;;;;4891969;28;87713;-81
2021/01/03 13:03:56;;;;;;;77.90;50.70;;;4.30;92.80;;;;;;4873441;28;90582;-81
2021/01/03 13:06:22;;;;;;;77.93;50.40;;;4.40;92.70;;;;;;4890675;28;88389;-81
2021/01/03 13:08:48;;;;;;;74.60;48.17;;;4.40;92.80;;;;;;4890843;28;87371;-82
2021/01/03 13:11:15;;;;;;;77.27;50.53;;;4.40;92.60;;;;;;4889151;28;87718;-80
2021/01/03 13:13:41;;;;;;;74.93;48.37;;;4.40;92.40;;;;;;4873281;28;90224;-80
2021/01/03 13:16:06;;;;;;;77.13;48.93;;;4.40;92.40;;;;;;4889746;28;87075;-80
2021/01/03 13:18:34;;;;;;;75.30;49.63;;;4.20;92.50;;;;;;4890189;28;87124;-80
2021/01/03 13:21:00;;;;;;;73.67;47.30;;;4.20;92.80;;;;;;4873710;28;88595;-79
2021/01/03 13:23:26;;;;;;;81.87;49.77;;;4.10;92.80;;;;;;4893485;28;87482;-80
2021/01/03 13:25:55;;;;;;;82.63;49.17;;;4.00;93.00;;;;;;4911395;28;86943;-79
2021/01/03 13:28:22;;;;;;;74.83;48.50;;;4.00;93.20;;;;;;4911947;28;87365;-79
2021/01/03 13:30:48;;;;;;;81.63;50.40;;;3.90;93.40;;;;;;4907686;28;91380;-78
2021/01/03 13:33:14;;;;;;;79.43;48.67;;;3.80;93.70;;;;;;4892193;28;92471;-78
2021/01/03 13:35:40;;;;;;;77.07;47.97;;;3.80;93.90;;;;;;4886079;28;87003;-78
2021/01/03 13:38:06;;;;;;;81.63;51.67;;;3.80;93.80;;;;;;4900706;28;87090;-77
2021/01/03 13:40:32;;;;;;;81.70;49.63;;;3.90;93.80;;;;;;4884944;28;90401;-78
2021/01/03 13:42:58;;;;;;;81.67;50.37;;;4.00;93.50;;;;;;4901715;28;87458;-78
2021/01/03 13:45:24;;;;;;;79.03;50.13;;;4.10;93.30;;;;;;4869143;28;87020;-77
2021/01/03 13:47:50;;;;;;;82.93;50.10;;;4.10;93.00;;;;;;4876052;28;87399;-78
2021/01/03 13:50:17;;;;;;;79.87;47.73;;;4.00;93.00;;;;;;4880770;28;88251;-78
2021/01/03 13:52:43;;;;;;;76.77;46.93;;;4.10;93.20;;;;;;4878330;28;88447;-78
2021/01/03 13:55:12;;;;;;;75.47;45.83;;;4.20;93.00;;;;;;4877756;28;87895;-78
2021/01/03 13:57:38;;;;;;;84.03;51.73;;;4.20;92.90;;;;;;4864654;28;87256;-78
2021/01/03 14:00:13;;;;;;;78.30;48.07;;;4.40;92.80;;;;;;4877835;28;91494;-77
2021/01/03 14:02:38;;;;;;;87.03;54.60;;;4.40;92.50;;;;;;4862869;29;91054;-78
2021/01/03 14:05:05;;;;;;;128.40;69.60;;;4.40;92.50;;;;;;4863674;29;87437;-77
2021/01/03 14:07:31;;;;;;;166.83;93.43;;;4.50;92.40;;;;;;4864792;29;87066;-78
2021/01/03 14:09:57;;;;;;;91.43;55.80;;;4.60;92.20;;;;;;4862852;29;91308;-78
2021/01/03 14:12:24;;;;;;;91.40;55.43;;;4.70;91.70;;;;;;4862409;29;91410;-78
2021/01/03 14:14:50;;;;;;;91.00;57.10;;;4.80;91.60;;;;;;4892466;28;87293;-78
2021/01/03 14:17:16;;;;;;;94.80;55.00;;;4.80;91.50;;;;;;4881210;28;87736;-77
2021/01/03 14:19:42;;;;;;;92.13;52.87;;;4.90;91.00;;;;;;4865345;28;92431;-78
2021/01/03 14:22:08;;;;;;;91.93;55.67;;;4.70;91.20;;;;;;4861151;28;92040;-78
2021/01/03 14:24:35;;;;;;;80.07;49.20;;;4.70;91.20;;;;;;4895843;28;87991;-77
2021/01/03 14:27:01;;;;;;;83.07;51.43;;;4.70;91.20;;;;;;4869200;28;87790;-77
2021/01/03 14:29:28;;;;;;;87.73;52.20;;;4.60;91.30;;;;;;4901732;28;89215;-78
2021/01/03 14:31:56;;;;;;;87.53;52.00;;;4.50;91.60;;;;;;4865630;28;91250;-78
2021/01/03 14:34:33;;;;;;;89.23;53.03;;;4.50;91.80;;;;;;4889429;28;87009;-78
2021/01/03 14:37:30;;;;;;;89.50;54.07;;;4.50;91.70;;;;;;4895678;28;88102;-77
2021/01/03 14:39:59;;;;;;;95.97;55.70;;;4.50;91.60;;;;;;4893391;28;91173;-77
2021/01/03 14:42:39;;;;;;;95.20;55.23;;;4.40;91.50;;;;;;4899857;28;89456;-74
2021/01/03 14:45:11;;;;;;;90.10;54.83;;;4.40;91.80;;;;;;4884288;28;87915;-78
2021/01/03 14:47:44;;;;;;;86.73;52.13;;;4.40;91.50;;;;;;4886875;28;87144;-78
2021/01/03 14:50:25;;;;;;;92.70;55.20;;;4.40;91.50;;;;;;4897123;28;91488;-80
2021/01/03 14:53:08;;;;;;;88.20;54.47;;;4.30;91.40;;;;;;4903520;28;87220;-79
2021/01/03 14:56:28;;;;;;;91.73;56.33;;;4.20;91.80;;;;;;4905226;28;87077;-78
2021/01/03 14:58:56;;;;;;;99.60;59.67;;;4.30;91.70;;;;;;4808864;29;88172;-78
2021/01/03 15:01:48;;;;;;;101.50;61.40;;;4.40;91.50;;;;;;4895857;28;90349;-78
2021/01/03 15:04:40;;;;;;;97.20;58.75;;;4.30;91.50;;;;;;4893528;28;90163;-78
2021/01/03 15:07:12;;;;;;;113.68;69.65;;;4.10;91.70;;;;;;4901626;28;87971;-78
2021/01/03 15:09:42;;;;;;;96.13;60.90;;;4.10;91.90;;;;;;4883336;28;87253;-78
2021/01/03 15:12:12;;;;;;;99.07;58.00;;;4.20;91.90;;;;;;4905703;28;89069;-80
2021/01/03 15:14:43;;;;;;;108.97;61.43;;;4.30;91.70;;;;;;4906596;28;87453;-81
2021/01/03 15:17:14;;;;;;;94.20;56.20;;;4.20;91.80;;;;;;4888630;28;87555;-80
2021/01/03 15:20:01;;;;;;;91.67;55.03;;;4.20;91.80;;;;;;4904193;28;87673;-80
2021/01/03 15:22:34;;;;;;;100.23;60.27;;;4.20;91.70;;;;;;4900990;28;92111;-80
2021/01/03 15:25:01;;;;;;;93.63;56.43;;;4.30;91.60;;;;;;4896202;28;89625;-80
2021/01/03 15:27:36;;;;;;;92.73;56.10;;;4.40;91.50;;;;;;4889044;28;87726;-80
2021/01/03 15:30:06;;;;;;;93.20;56.87;;;4.40;91.20;;;;;;4901292;28;86326;-80
2021/01/03 15:32:45;;;;;;;95.77;57.93;;;4.50;91.10;;;;;;4905046;28;92121;-81
2021/01/03 15:35:28;;;;;;;89.23;54.60;;;4.40;91.00;;;;;;4886047;28;88031;-79
2021/01/03 15:38:00;;;;;;;93.27;55.37;;;4.30;91.40;;;;;;4898384;28;88159;-80
2021/01/03 15:40:46;;;;;;;87.10;52.90;;;4.30;91.60;;;;;;4883241;28;87761;-81
2021/01/03 15:43:31;;;;;;;95.33;55.97;;;4.40;91.40;;;;;;4878617;28;87674;-81
2021/01/03 15:46:08;;;;;;;103.07;58.97;;;4.50;91.30;;;;;;4871898;29;90354;-80
2021/01/03 15:48:39;;;;;;;94.40;54.13;;;4.40;91.10;;;;;;4892249;28;88229;-81
2021/01/03 15:51:05;;;;;;;91.63;58.30;;;4.40;91.10;;;;;;4894399;28;87155;-81
2021/01/03 15:53:32;;;;;;;101.23;56.27;;;4.50;91.10;;;;;;4911936;28;87857;-81
2021/01/03 15:56:05;;;;;;;101.07;59.63;;;4.60;90.80;;;;;;4894495;28;88206;-81
2021/01/03 15:58:31;;;;;;;97.47;58.00;;;4.60;90.70;;;;;;4893277;28;87045;-81
2021/01/03 16:00:58;;;;;;;87.50;54.23;;;4.60;90.60;;;;;;4909969;28;87888;-81
2021/01/03 16:03:24;;;;;;;94.57;54.73;;;4.60;90.70;;;;;;4908506;28;88367;-81
2021/01/03 16:05:49;;;;;;;92.83;56.07;;;4.60;90.30;;;;;;4909272;28;87445;-80
2021/01/03 16:08:15;;;;;;;91.80;55.30;;;4.50;90.60;;;;;;4907153;28;88248;-79
2021/01/03 16:10:41;;;;;;;95.43;58.43;;;4.40;90.60;;;;;;4900891;28;87496;-82
2021/01/03 16:13:07;;;;;;;95.83;58.90;;;4.30;91.00;;;;;;4904033;28;89568;-80
2021/01/03 16:15:37;;;;;;;94.43;57.73;;;4.30;91.10;;;;;;4902248;28;89131;-80
2021/01/03 16:18:04;;;;;;;97.13;58.03;;;4.40;91.10;;;;;;4880189;28;86985;-80
2021/01/03 16:20:30;;;;;;;94.70;55.70;;;4.40;90.90;;;;;;4891652;28;87889;-81
2021/01/03 16:23:14;;;;;;;91.83;54.20;;;4.40;90.90;;;;;;4907572;28;89431;-81
2021/01/03 16:26:04;;;;;;;97.27;57.90;;;4.40;91.00;;;;;;4911046;28;90214;-81
2021/01/03 16:28:51;;;;;;;101.03;59.30;;;4.30;91.10;;;;;;4911936;28;87980;-81
2021/01/03 16:31:41;;;;;;;105.67;61.50;;;4.30;91.10;;;;;;4911404;28;87108;-81
2021/01/03 16:34:51;;;;;;;106.43;61.37;;;4.30;91.10;;;;;;4912064;28;87417;-81
2021/01/03 16:37:57;;;;;;;102.63;60.53;;;4.20;90.90;;;;;;4849885;29;88198;-80
2021/01/03 16:40:41;;;;;;;96.67;57.17;;;4.10;91.40;;;;;;4874278;28;86961;-80
2021/01/03 16:43:19;;;;;;;106.73;64.07;;;4.10;91.50;;;;;;4890786;28;88180;-80
2021/01/03 16:46:03;;;;;;;143.67;85.57;;;4.20;91.50;;;;;;4907442;28;90778;-80
2021/01/03 16:48:51;;;;;;;112.73;67.80;;;4.10;91.40;;;;;;4886917;28;88417;-81
2021/01/03 16:51:26;;;;;;;104.90;63.33;;;4.10;91.50;;;;;;4906509;28;87007;-80
2021/01/03 16:54:06;;;;;;;115.43;68.93;;;4.10;91.50;;;;;;4906664;28;87096;-78
2021/01/03 16:56:50;;;;;;;100.90;59.17;;;4.10;91.50;;;;;;4889242;28;93252;-80
2021/01/03 16:59:22;;;;;;;101.07;58.27;;;4.20;91.50;;;;;;4886649;28;91435;-80
2021/01/03 17:01:55;;;;;;;104.70;62.80;;;4.10;91.50;;;;;;4901021;28;87005;-80
2021/01/03 17:04:20;;;;;;;100.37;59.10;;;4.20;91.60;;;;;;5223947;23;89007;-80
2021/01/03 17:06:59;;;;;;;100.80;60.43;;;4.20;91.60;;;;;;4900117;28;91703;-78
2021/01/03 17:09:34;;;;;;;106.03;62.57;;;4.20;91.30;;;;;;4885949;28;90150;-79
2021/01/03 17:12:21;;;;;;;94.53;59.17;;;4.10;91.30;;;;;;4885275;28;87438;-78
2021/01/03 17:15:14;;;;;;;106.53;62.43;;;4.00;91.50;;;;;;4886278;28;86864;-77
2021/01/03 17:17:45;;;;;;;103.77;64.90;;;4.00;91.60;;;;;;4888893;28;88137;-79
2021/01/03 17:20:27;;;;;;;98.23;58.40;;;4.00;91.60;;;;;;4903206;28;89795;-78
2021/01/03 17:23:18;;;;;;;102.90;61.13;;;4.10;91.40;;;;;;4903290;28;88486;-79
2021/01/03 17:26:16;;;;;;;103.57;62.23;;;4.00;91.60;;;;;;4903928;28;87982;-78
2021/01/03 17:29:06;;;;;;;98.70;59.57;;;4.00;91.80;;;;;;4862660;28;91718;-78
2021/01/03 17:31:35;;;;;;;108.63;64.03;;;3.90;91.60;;;;;;4866751;28;91416;-78
2021/01/03 17:34:15;;;;;;;101.37;62.10;;;3.90;91.90;;;;;;4882160;28;87448;-78
2021/01/03 17:37:03;;;;;;;106.40;63.33;;;3.90;91.90;;;;;;4884765;28;87473;-78
2021/01/03 17:39:35;;;;;;;100.83;60.87;;;4.00;91.80;;;;;;4881901;28;89430;-77
2021/01/03 17:42:06;;;;;;;98.72;60.53;;;4.00;91.80;;;;;;4900975;28;91838;-78
2021/01/03 17:44:32;;;;;;;102.33;61.47;;;4.00;91.90;;;;;;4906272;28;86190;-79
2021/01/03 17:47:16;;;;;;;105.60;62.93;;;4.00;91.80;;;;;;4884414;28;87757;-77
2021/01/03 17:49:48;;;;;;;102.73;61.63;;;3.90;91.80;;;;;;4901411;28;89536;-79
2021/01/03 17:52:19;;;;;;;99.13;60.63;;;3.90;91.90;;;;;;4893733;28;88827;-77
2021/01/03 17:54:45;;;;;;;102.03;61.63;;;3.90;92.00;;;;;;4897321;28;87579;-79
2021/01/03 17:57:11;;;;;;;102.20;62.33;;;4.00;91.80;;;;;;4882541;28;87223;-80
2021/01/03 17:59:37;;;;;;;106.33;63.10;;;4.10;91.50;;;;;;4884251;28;90105;-78
2021/01/03 18:02:07;;;;;;;107.50;62.70;;;4.20;91.40;;;;;;4890226;28;87621;-80
2021/01/03 18:04:33;;;;;;;98.70;61.50;;;4.30;91.10;;;;;;4890362;28;87563;-81
2021/01/03 18:07:03;;;;;;;95.80;61.13;;;4.40;90.90;;;;;;4902410;28;86309;-79
2021/01/03 18:09:29;;;;;;;101.23;60.63;;;4.30;90.70;;;;;;4905004;28;89975;-79
2021/01/03 18:11:55;;;;;;;101.13;62.50;;;4.40;90.70;;;;;;4901247;28;91362;-78
2021/01/03 18:14:21;;;;;;;99.83;62.30;;;4.40;90.50;;;;;;4900858;28;87978;-79
2021/01/03 18:16:47;;;;;;;105.23;64.17;;;4.40;90.50;;;;;;4886523;28;87350;-78
2021/01/03 18:19:14;;;;;;;98.17;59.50;;;4.40;90.40;;;;;;4901216;28;88230;-78
2021/01/03 18:21:43;;;;;;;102.47;64.20;;;4.40;90.50;;;;;;4907196;28;87998;-78
2021/01/03 18:24:09;;;;;;;93.47;62.03;;;4.40;90.40;;;;;;4900536;28;87662;-79
2021/01/03 18:26:43;;;;;;;116.77;68.67;;;4.40;90.50;;;;;;4887938;28;88303;-79
2021/01/03 18:29:11;;;;;;;135.27;80.67;;;4.40;90.40;;;;;;4904088;28;91287;-78
2021/01/03 18:31:39;;;;;;;159.33;92.60;;;4.30;90.30;;;;;;4905382;28;87614;-79
2021/01/03 18:34:05;;;;;;;115.70;73.57;;;4.20;90.70;;;;;;4905221;28;87659;-80
2021/01/03 18:36:31;;;;;;;98.07;61.07;;;4.20;90.80;;;;;;4905226;28;86968;-79
2021/01/03 18:38:57;;;;;;;100.87;64.57;;;4.20;90.70;;;;;;4889589;28;91021;-80
2021/01/03 18:41:23;;;;;;;98.10;62.30;;;4.20;90.90;;;;;;4905608;28;92565;-79
2021/01/03 18:43:49;;;;;;;99.10;63.93;;;4.10;91.00;;;;;;4891465;28;87106;-80
2021/01/03 18:46:19;;;;;;;97.80;64.37;;;4.20;90.90;;;;;;4891682;28;86889;-79
2021/01/03 18:48:45;;;;;;;97.90;62.77;;;4.20;90.80;;;;;;4885702;28;91473;-79
2021/01/03 18:51:15;;;;;;;96.03;63.23;;;4.20;90.90;;;;;;4870446;28;89846;-79
2021/01/03 18:53:41;;;;;;;96.43;59.93;;;4.20;90.90;;;;;;4888718;28;87145;-79
2021/01/03 18:56:07;;;;;;;101.77;63.10;;;4.20;90.90;;;;;;4911451;28;86782;-80
2021/01/03 18:58:34;;;;;;;100.43;63.83;;;4.20;90.90;;;;;;4918512;28;86664;-80
2021/01/03 19:01:00;;;;;;;92.97;60.67;;;4.10;91.20;;;;;;4917182;28;87022;-80
2021/01/03 19:03:26;;;;;;;100.53;65.07;;;4.20;91.30;;;;;;4910124;28;87891;-80
2021/01/03 19:05:55;;;;;;;101.80;63.73;;;4.20;91.10;;;;;;4904055;28;87436;-80
2021/01/03 19:08:23;;;;;;;99.87;63.17;;;4.20;91.10;;;;;;4868121;28;88863;-80
2021/01/03 19:10:51;;;;;;;97.93;62.50;;;4.30;91.10;;;;;;4885567;28;88010;-81
2021/01/03 19:13:17;;;;;;;101.40;64.07;;;4.30;90.90;;;;;;4885168;28;87674;-81
2021/01/03 19:15:43;;;;;;;96.03;62.20;;;4.40;90.70;;;;;;4868025;28;87979;-81
2021/01/03 19:18:12;;;;;;;99.50;64.37;;;4.50;90.50;;;;;;4902340;28;88288;-81
2021/01/03 19:20:42;;;;;;;97.17;62.13;;;4.60;90.40;;;;;;4882075;28;90622;-81